sensor_id;sensor_type;location;lat;lon;timestamp;P1;durP1;ratioP1;P2;durP2;ratioP2
54983;SDS011;40884;53.562;9.940;2023-01-13T00:00:05;0.80;;;0.80;;
54983;SDS011;40884;53.562;9.940;2023-01-13T00:01:13;2.00;;;0.90;;
54983;SDS011;40884;53.562;9.940;2023-01-13T00:02:13;1.03;;;0.90;;
54983;SDS011;40884;53.562;9.940;2023-01-13T00:03:13;1.63;;;0.90;;
54983;SDS011;40884;53.562;9.940;2023-01-13T00:04:13;1.37;;;0.97;;
54983;SDS011;40884;53.562;9.940;2023-01-13T00:05:13;0.70;;;0.67;;
54983;SDS011;40884;53.562;9.940;2023-01-13T00:06:15;0.63;;;0.63;;
54983;SDS011;40884;53.562;9.940;2023-01-13T00:07:15;3.03;;;0.70;;
54983;SDS011;40884;53.562;9.940;2023-01-13T00:08:15;1.03;;;0.80;;
54983;SDS011;40884;53.562;9.940;2023-01-13T00:09:15;1.27;;;0.97;;
54983;SDS011;40884;53.562;9.940;2023-01-13T00:10:16;1.13;;;0.77;;
54983;SDS011;40884;53.562;9.940;2023-01-13T00:11:16;0.97;;;0.87;;
54983;SDS011;40884;53.562;9.940;2023-01-13T00:12:16;1.97;;;0.70;;
54983;SDS011;40884;53.562;9.940;2023-01-13T00:13:17;1.00;;;0.90;;
54983;SDS011;40884;53.562;9.940;2023-01-13T00:14:17;1.23;;;0.67;;
54983;SDS011;40884;53.562;9.940;2023-01-13T00:15:17;0.80;;;0.80;;
54983;SDS011;40884;53.562;9.940;2023-01-13T00:16:17;0.97;;;0.80;;
54983;SDS011;40884;53.562;9.940;2023-01-13T00:17:17;1.07;;;0.93;;
54983;SDS011;40884;53.562;9.940;2023-01-13T00:18:17;1.87;;;1.00;;
54983;SDS011;40884;53.562;9.940;2023-01-13T00:19:18;0.90;;;0.70;;
54983;SDS011;40884;53.562;9.940;2023-01-13T00:20:21;2.70;;;0.87;;
54983;SDS011;40884;53.562;9.940;2023-01-13T00:21:22;1.20;;;0.67;;
54983;SDS011;40884;53.562;9.940;2023-01-13T00:22:22;1.83;;;0.70;;
54983;SDS011;40884;53.562;9.940;2023-01-13T00:23:22;1.47;;;0.90;;
54983;SDS011;40884;53.562;9.940;2023-01-13T00:24:22;1.70;;;0.60;;
54983;SDS011;40884;53.562;9.940;2023-01-13T00:25:23;2.73;;;0.70;;
54983;SDS011;40884;53.562;9.940;2023-01-13T00:26:24;2.33;;;1.10;;
54983;SDS011;40884;53.562;9.940;2023-01-13T00:27:24;1.20;;;0.60;;
54983;SDS011;40884;53.562;9.940;2023-01-13T00:28:24;1.90;;;0.80;;
54983;SDS011;40884;53.562;9.940;2023-01-13T00:29:24;0.60;;;0.43;;
54983;SDS011;40884;53.562;9.940;2023-01-13T00:30:25;1.33;;;0.70;;
54983;SDS011;40884;53.562;9.940;2023-01-13T00:31:25;1.07;;;0.70;;
54983;SDS011;40884;53.562;9.940;2023-01-13T00:32:26;1.50;;;0.80;;
54983;SDS011;40884;53.562;9.940;2023-01-13T00:33:27;2.20;;;0.90;;
54983;SDS011;40884;53.562;9.940;2023-01-13T00:34:27;1.23;;;0.80;;
54983;SDS011;40884;53.562;9.940;2023-01-13T00:35:27;0.90;;;0.60;;
54983;SDS011;40884;53.562;9.940;2023-01-13T00:36:27;3.33;;;0.70;;
54983;SDS011;40884;53.562;9.940;2023-01-13T00:37:27;0.93;;;0.57;;
54983;SDS011;40884;53.562;9.940;2023-01-13T00:38:29;1.97;;;0.87;;
54983;SDS011;40884;53.562;9.940;2023-01-13T00:39:29;1.07;;;0.63;;
54983;SDS011;40884;53.562;9.940;2023-01-13T00:40:29;1.57;;;0.57;;
54983;SDS011;40884;53.562;9.940;2023-01-13T00:41:29;1.23;;;0.70;;
54983;SDS011;40884;53.562;9.940;2023-01-13T00:42:29;2.87;;;0.97;;
54983;SDS011;40884;53.562;9.940;2023-01-13T00:43:30;3.47;;;0.90;;
54983;SDS011;40884;53.562;9.940;2023-01-13T00:44:30;3.17;;;0.90;;
54983;SDS011;40884;53.562;9.940;2023-01-13T00:45:30;1.70;;;0.67;;
54983;SDS011;40884;53.562;9.940;2023-01-13T00:46:30;2.30;;;0.70;;
54983;SDS011;40884;53.562;9.940;2023-01-13T00:47:31;1.70;;;0.77;;
54983;SDS011;40884;53.562;9.940;2023-01-13T00:48:31;2.27;;;0.80;;
54983;SDS011;40884;53.562;9.940;2023-01-13T00:49:31;1.27;;;0.50;;
54983;SDS011;40884;53.562;9.940;2023-01-13T00:50:31;2.80;;;0.87;;
54983;SDS011;40884;53.562;9.940;2023-01-13T00:51:31;2.13;;;0.60;;
54983;SDS011;40884;53.562;9.940;2023-01-13T00:52:31;2.37;;;0.80;;
54983;SDS011;40884;53.562;9.940;2023-01-13T00:53:33;2.50;;;0.77;;
54983;SDS011;40884;53.562;9.940;2023-01-13T00:54:33;3.30;;;0.80;;
54983;SDS011;40884;53.562;9.940;2023-01-13T00:55:33;3.87;;;0.93;;
54983;SDS011;40884;53.562;9.940;2023-01-13T00:56:33;1.93;;;0.80;;
54983;SDS011;40884;53.562;9.940;2023-01-13T00:57:33;2.07;;;0.80;;
54983;SDS011;40884;53.562;9.940;2023-01-13T00:58:34;3.60;;;0.87;;
54983;SDS011;40884;53.562;9.940;2023-01-13T00:59:34;1.77;;;0.60;;
54983;SDS011;40884;53.562;9.940;2023-01-13T01:00:35;2.23;;;0.63;;
54983;SDS011;40884;53.562;9.940;2023-01-13T01:01:35;1.53;;;0.60;;
54983;SDS011;40884;53.562;9.940;2023-01-13T01:02:35;5.53;;;1.00;;
54983;SDS011;40884;53.562;9.940;2023-01-13T01:03:35;1.43;;;0.93;;
54983;SDS011;40884;53.562;9.940;2023-01-13T01:04:35;2.97;;;0.77;;
54983;SDS011;40884;53.562;9.940;2023-01-13T01:05:35;3.67;;;0.80;;
54983;SDS011;40884;53.562;9.940;2023-01-13T01:06:35;4.00;;;1.07;;
54983;SDS011;40884;53.562;9.940;2023-01-13T01:07:36;3.57;;;1.10;;
54983;SDS011;40884;53.562;9.940;2023-01-13T01:08:36;2.87;;;0.93;;
54983;SDS011;40884;53.562;9.940;2023-01-13T01:09:36;3.30;;;1.03;;
54983;SDS011;40884;53.562;9.940;2023-01-13T01:10:36;2.97;;;1.00;;
54983;SDS011;40884;53.562;9.940;2023-01-13T01:11:36;3.33;;;1.10;;
54983;SDS011;40884;53.562;9.940;2023-01-13T01:12:36;3.20;;;1.00;;
54983;SDS011;40884;53.562;9.940;2023-01-13T01:13:37;3.00;;;1.17;;
54983;SDS011;40884;53.562;9.940;2023-01-13T01:14:37;2.83;;;0.80;;
54983;SDS011;40884;53.562;9.940;2023-01-13T01:15:40;2.53;;;0.73;;
54983;SDS011;40884;53.562;9.940;2023-01-13T01:16:40;4.27;;;1.00;;
54983;SDS011;40884;53.562;9.940;2023-01-13T01:17:40;4.03;;;0.97;;
54983;SDS011;40884;53.562;9.940;2023-01-13T01:18:41;4.47;;;1.30;;
54983;SDS011;40884;53.562;9.940;2023-01-13T01:19:42;2.43;;;0.90;;
54983;SDS011;40884;53.562;9.940;2023-01-13T01:20:42;2.30;;;0.93;;
54983;SDS011;40884;53.562;9.940;2023-01-13T01:21:42;2.33;;;1.30;;
54983;SDS011;40884;53.562;9.940;2023-01-13T01:22:42;4.13;;;1.13;;
54983;SDS011;40884;53.562;9.940;2023-01-13T01:23:42;4.20;;;1.13;;
54983;SDS011;40884;53.562;9.940;2023-01-13T01:24:42;2.33;;;0.70;;
54983;SDS011;40884;53.562;9.940;2023-01-13T01:25:42;2.90;;;1.00;;
54983;SDS011;40884;53.562;9.940;2023-01-13T01:26:43;2.33;;;0.93;;
54983;SDS011;40884;53.562;9.940;2023-01-13T01:27:43;1.90;;;0.80;;
54983;SDS011;40884;53.562;9.940;2023-01-13T01:28:43;2.97;;;0.90;;
54983;SDS011;40884;53.562;9.940;2023-01-13T01:29:43;4.30;;;1.20;;
54983;SDS011;40884;53.562;9.940;2023-01-13T01:30:43;4.67;;;1.13;;
54983;SDS011;40884;53.562;9.940;2023-01-13T01:31:44;2.33;;;0.90;;
54983;SDS011;40884;53.562;9.940;2023-01-13T01:32:44;3.17;;;0.90;;
54983;SDS011;40884;53.562;9.940;2023-01-13T01:33:44;2.00;;;1.00;;
54983;SDS011;40884;53.562;9.940;2023-01-13T01:34:44;4.53;;;1.30;;
54983;SDS011;40884;53.562;9.940;2023-01-13T01:35:44;4.03;;;1.27;;
54983;SDS011;40884;53.562;9.940;2023-01-13T01:36:45;3.47;;;1.10;;
54983;SDS011;40884;53.562;9.940;2023-01-13T01:37:45;5.07;;;1.63;;
54983;SDS011;40884;53.562;9.940;2023-01-13T01:38:46;4.67;;;1.37;;
54983;SDS011;40884;53.562;9.940;2023-01-13T01:39:46;3.63;;;1.10;;
54983;SDS011;40884;53.562;9.940;2023-01-13T01:40:46;6.20;;;1.60;;
54983;SDS011;40884;53.562;9.940;2023-01-13T01:41:46;4.90;;;1.30;;
54983;SDS011;40884;53.562;9.940;2023-01-13T01:42:47;4.70;;;1.10;;
54983;SDS011;40884;53.562;9.940;2023-01-13T01:43:51;4.67;;;1.30;;
54983;SDS011;40884;53.562;9.940;2023-01-13T01:44:59;2.80;;;0.93;;
54983;SDS011;40884;53.562;9.940;2023-01-13T01:45:59;6.17;;;1.43;;
54983;SDS011;40884;53.562;9.940;2023-01-13T01:46:59;4.13;;;1.07;;
54983;SDS011;40884;53.562;9.940;2023-01-13T01:48:00;5.13;;;1.27;;
54983;SDS011;40884;53.562;9.940;2023-01-13T01:49:04;5.53;;;1.33;;
54983;SDS011;40884;53.562;9.940;2023-01-13T01:50:06;4.73;;;1.20;;
54983;SDS011;40884;53.562;9.940;2023-01-13T01:51:07;4.37;;;0.87;;
54983;SDS011;40884;53.562;9.940;2023-01-13T01:52:19;6.00;;;1.33;;
54983;SDS011;40884;53.562;9.940;2023-01-13T01:53:20;2.20;;;0.73;;
54983;SDS011;40884;53.562;9.940;2023-01-13T01:54:27;5.30;;;1.30;;
54983;SDS011;40884;53.562;9.940;2023-01-13T01:55:29;3.50;;;1.10;;
54983;SDS011;40884;53.562;9.940;2023-01-13T01:56:31;5.90;;;1.80;;
54983;SDS011;40884;53.562;9.940;2023-01-13T01:57:37;6.50;;;1.67;;
54983;SDS011;40884;53.562;9.940;2023-01-13T01:58:40;5.90;;;1.27;;
54983;SDS011;40884;53.562;9.940;2023-01-13T01:59:43;5.93;;;1.57;;
54983;SDS011;40884;53.562;9.940;2023-01-13T02:00:43;5.10;;;1.77;;
54983;SDS011;40884;53.562;9.940;2023-01-13T02:01:43;4.00;;;1.20;;
54983;SDS011;40884;53.562;9.940;2023-01-13T02:02:44;5.80;;;1.63;;
54983;SDS011;40884;53.562;9.940;2023-01-13T02:03:48;6.23;;;1.57;;
54983;SDS011;40884;53.562;9.940;2023-01-13T02:04:50;5.37;;;1.43;;
54983;SDS011;40884;53.562;9.940;2023-01-13T02:05:52;5.43;;;1.50;;
54983;SDS011;40884;53.562;9.940;2023-01-13T02:06:52;4.40;;;1.23;;
54983;SDS011;40884;53.562;9.940;2023-01-13T02:07:53;4.30;;;1.37;;
54983;SDS011;40884;53.562;9.940;2023-01-13T02:08:53;5.80;;;1.70;;
54983;SDS011;40884;53.562;9.940;2023-01-13T02:09:54;4.57;;;1.40;;
54983;SDS011;40884;53.562;9.940;2023-01-13T02:10:55;4.47;;;1.47;;
54983;SDS011;40884;53.562;9.940;2023-01-13T02:11:55;5.43;;;1.30;;
54983;SDS011;40884;53.562;9.940;2023-01-13T02:12:56;4.63;;;1.23;;
54983;SDS011;40884;53.562;9.940;2023-01-13T02:13:57;5.83;;;1.63;;
54983;SDS011;40884;53.562;9.940;2023-01-13T02:15:04;6.30;;;1.70;;
54983;SDS011;40884;53.562;9.940;2023-01-13T02:18:19;6.27;;;1.73;;
54983;SDS011;40884;53.562;9.940;2023-01-13T02:19:28;4.30;;;1.63;;
54983;SDS011;40884;53.562;9.940;2023-01-13T02:22:01;4.93;;;1.43;;
54983;SDS011;40884;53.562;9.940;2023-01-13T02:24:34;6.87;;;1.43;;
54983;SDS011;40884;53.562;9.940;2023-01-13T02:26:58;7.73;;;1.93;;
54983;SDS011;40884;53.562;9.940;2023-01-13T02:28:06;6.27;;;1.80;;
54983;SDS011;40884;53.562;9.940;2023-01-13T02:31:38;6.13;;;1.20;;
54983;SDS011;40884;53.562;9.940;2023-01-13T02:33:02;8.43;;;2.00;;
54983;SDS011;40884;53.562;9.940;2023-01-13T02:34:12;8.73;;;1.90;;
54983;SDS011;40884;53.562;9.940;2023-01-13T02:36:24;3.50;;;1.03;;
54983;SDS011;40884;53.562;9.940;2023-01-13T02:37:27;5.80;;;1.30;;
54983;SDS011;40884;53.562;9.940;2023-01-13T02:38:31;7.37;;;1.93;;
54983;SDS011;40884;53.562;9.940;2023-01-13T02:39:35;9.87;;;2.20;;
54983;SDS011;40884;53.562;9.940;2023-01-13T02:40:44;6.00;;;1.97;;
54983;SDS011;40884;53.562;9.940;2023-01-13T02:41:48;6.53;;;1.97;;
54983;SDS011;40884;53.562;9.940;2023-01-13T02:44:02;9.43;;;2.33;;
54983;SDS011;40884;53.562;9.940;2023-01-13T02:45:04;10.30;;;2.27;;
54983;SDS011;40884;53.562;9.940;2023-01-13T02:46:14;6.77;;;1.87;;
54983;SDS011;40884;53.562;9.940;2023-01-13T02:47:18;9.03;;;2.30;;
54983;SDS011;40884;53.562;9.940;2023-01-13T02:48:19;8.20;;;1.73;;
54983;SDS011;40884;53.562;9.940;2023-01-13T02:49:23;11.50;;;2.70;;
54983;SDS011;40884;53.562;9.940;2023-01-13T02:50:26;7.33;;;2.03;;
54983;SDS011;40884;53.562;9.940;2023-01-13T02:51:28;7.83;;;2.33;;
54983;SDS011;40884;53.562;9.940;2023-01-13T02:53:33;10.90;;;2.10;;
54983;SDS011;40884;53.562;9.940;2023-01-13T02:54:34;8.27;;;2.17;;
54983;SDS011;40884;53.562;9.940;2023-01-13T02:55:36;7.93;;;1.83;;
54983;SDS011;40884;53.562;9.940;2023-01-13T02:56:39;5.53;;;1.87;;
54983;SDS011;40884;53.562;9.940;2023-01-13T02:57:40;6.57;;;2.00;;
54983;SDS011;40884;53.562;9.940;2023-01-13T02:58:41;8.07;;;1.93;;
54983;SDS011;40884;53.562;9.940;2023-01-13T02:59:42;10.10;;;2.40;;
54983;SDS011;40884;53.562;9.940;2023-01-13T03:00:42;8.67;;;2.30;;
54983;SDS011;40884;53.562;9.940;2023-01-13T03:01:43;9.83;;;2.57;;
54983;SDS011;40884;53.562;9.940;2023-01-13T03:02:46;6.33;;;2.00;;
54983;SDS011;40884;53.562;9.940;2023-01-13T03:03:46;7.43;;;2.17;;
54983;SDS011;40884;53.562;9.940;2023-01-13T03:04:56;8.00;;;2.30;;
54983;SDS011;40884;53.562;9.940;2023-01-13T03:07:25;7.93;;;1.80;;
54983;SDS011;40884;53.562;9.940;2023-01-13T03:08:32;8.67;;;2.20;;
54983;SDS011;40884;53.562;9.940;2023-01-13T03:09:37;4.83;;;1.70;;
54983;SDS011;40884;53.562;9.940;2023-01-13T03:10:51;7.47;;;2.17;;
54983;SDS011;40884;53.562;9.940;2023-01-13T03:13:17;8.00;;;1.97;;
54983;SDS011;40884;53.562;9.940;2023-01-13T03:14:22;6.33;;;1.77;;
54983;SDS011;40884;53.562;9.940;2023-01-13T03:15:36;5.17;;;2.03;;
54983;SDS011;40884;53.562;9.940;2023-01-13T03:16:49;6.07;;;1.50;;
54983;SDS011;40884;53.562;9.940;2023-01-13T03:17:54;9.43;;;2.00;;
54983;SDS011;40884;53.562;9.940;2023-01-13T03:19:09;5.93;;;1.73;;
54983;SDS011;40884;53.562;9.940;2023-01-13T03:20:15;10.70;;;2.70;;
54983;SDS011;40884;53.562;9.940;2023-01-13T03:21:19;4.60;;;1.37;;
54983;SDS011;40884;53.562;9.940;2023-01-13T03:22:22;8.40;;;1.80;;
54983;SDS011;40884;53.562;9.940;2023-01-13T03:23:33;5.43;;;1.40;;
54983;SDS011;40884;53.562;9.940;2023-01-13T03:24:38;5.73;;;1.90;;
54983;SDS011;40884;53.562;9.940;2023-01-13T03:25:40;7.80;;;1.77;;
54983;SDS011;40884;53.562;9.940;2023-01-13T03:26:47;7.17;;;1.80;;
54983;SDS011;40884;53.562;9.940;2023-01-13T03:27:55;4.37;;;1.03;;
54983;SDS011;40884;53.562;9.940;2023-01-13T03:30:19;8.40;;;1.83;;
54983;SDS011;40884;53.562;9.940;2023-01-13T03:31:23;8.13;;;2.27;;
54983;SDS011;40884;53.562;9.940;2023-01-13T03:32:26;12.00;;;2.20;;
54983;SDS011;40884;53.562;9.940;2023-01-13T03:33:33;10.27;;;2.50;;
54983;SDS011;40884;53.562;9.940;2023-01-13T03:34:36;8.13;;;1.47;;
54983;SDS011;40884;53.562;9.940;2023-01-13T03:35:39;5.57;;;1.83;;
54983;SDS011;40884;53.562;9.940;2023-01-13T03:36:40;6.50;;;1.50;;
54983;SDS011;40884;53.562;9.940;2023-01-13T03:37:42;7.37;;;1.30;;
54983;SDS011;40884;53.562;9.940;2023-01-13T03:38:45;6.53;;;1.90;;
54983;SDS011;40884;53.562;9.940;2023-01-13T03:39:52;8.33;;;1.83;;
54983;SDS011;40884;53.562;9.940;2023-01-13T03:40:54;7.97;;;2.37;;
54983;SDS011;40884;53.562;9.940;2023-01-13T03:41:56;8.67;;;2.20;;
54983;SDS011;40884;53.562;9.940;2023-01-13T03:43:02;11.03;;;2.43;;
54983;SDS011;40884;53.562;9.940;2023-01-13T03:44:20;9.43;;;2.33;;
54983;SDS011;40884;53.562;9.940;2023-01-13T03:45:22;6.00;;;2.03;;
54983;SDS011;40884;53.562;9.940;2023-01-13T03:46:25;9.40;;;2.43;;
54983;SDS011;40884;53.562;9.940;2023-01-13T03:47:38;9.17;;;2.23;;
54983;SDS011;40884;53.562;9.940;2023-01-13T03:48:39;7.20;;;2.23;;
54983;SDS011;40884;53.562;9.940;2023-01-13T03:49:50;11.87;;;2.70;;
54983;SDS011;40884;53.562;9.940;2023-01-13T03:50:52;7.63;;;1.83;;
54983;SDS011;40884;53.562;9.940;2023-01-13T03:51:55;14.43;;;3.10;;
54983;SDS011;40884;53.562;9.940;2023-01-13T03:53:09;12.50;;;2.60;;
54983;SDS011;40884;53.562;9.940;2023-01-13T03:54:10;10.30;;;2.77;;
54983;SDS011;40884;53.562;9.940;2023-01-13T03:55:16;8.10;;;2.33;;
54983;SDS011;40884;53.562;9.940;2023-01-13T03:56:29;16.17;;;3.50;;
54983;SDS011;40884;53.562;9.940;2023-01-13T03:57:34;4.67;;;1.53;;
54983;SDS011;40884;53.562;9.940;2023-01-13T03:58:36;11.70;;;2.83;;
54983;SDS011;40884;53.562;9.940;2023-01-13T03:59:40;16.47;;;3.40;;
54983;SDS011;40884;53.562;9.940;2023-01-13T04:00:43;8.77;;;3.07;;
54983;SDS011;40884;53.562;9.940;2023-01-13T04:01:47;15.33;;;2.60;;
54983;SDS011;40884;53.562;9.940;2023-01-13T04:02:53;11.40;;;2.90;;
54983;SDS011;40884;53.562;9.940;2023-01-13T04:04:05;12.97;;;2.63;;
54983;SDS011;40884;53.562;9.940;2023-01-13T04:05:06;13.53;;;2.73;;
54983;SDS011;40884;53.562;9.940;2023-01-13T04:06:15;7.83;;;1.67;;
54983;SDS011;40884;53.562;9.940;2023-01-13T04:07:22;12.53;;;3.33;;
54983;SDS011;40884;53.562;9.940;2023-01-13T04:08:26;11.33;;;2.90;;
54983;SDS011;40884;53.562;9.940;2023-01-13T04:11:00;14.80;;;3.70;;
54983;SDS011;40884;53.562;9.940;2023-01-13T04:12:09;13.63;;;3.93;;
54983;SDS011;40884;53.562;9.940;2023-01-13T04:13:11;11.43;;;3.00;;
54983;SDS011;40884;53.562;9.940;2023-01-13T04:14:13;20.20;;;3.37;;
54983;SDS011;40884;53.562;9.940;2023-01-13T04:15:15;18.00;;;3.70;;
54983;SDS011;40884;53.562;9.940;2023-01-13T04:16:16;11.80;;;3.43;;
54983;SDS011;40884;53.562;9.940;2023-01-13T04:17:16;8.77;;;1.80;;
54983;SDS011;40884;53.562;9.940;2023-01-13T04:18:24;10.17;;;2.67;;
54983;SDS011;40884;53.562;9.940;2023-01-13T04:19:24;16.37;;;3.53;;
54983;SDS011;40884;53.562;9.940;2023-01-13T04:20:24;14.33;;;3.50;;
54983;SDS011;40884;53.562;9.940;2023-01-13T04:21:24;11.47;;;2.60;;
54983;SDS011;40884;53.562;9.940;2023-01-13T04:22:24;12.17;;;3.07;;
54983;SDS011;40884;53.562;9.940;2023-01-13T04:23:25;10.97;;;3.00;;
54983;SDS011;40884;53.562;9.940;2023-01-13T04:24:25;13.47;;;3.27;;
54983;SDS011;40884;53.562;9.940;2023-01-13T04:25:25;12.20;;;3.47;;
54983;SDS011;40884;53.562;9.940;2023-01-13T04:26:25;16.87;;;4.23;;
54983;SDS011;40884;53.562;9.940;2023-01-13T04:27:25;17.17;;;3.43;;
54983;SDS011;40884;53.562;9.940;2023-01-13T04:28:26;12.63;;;3.33;;
54983;SDS011;40884;53.562;9.940;2023-01-13T04:29:26;15.93;;;3.40;;
54983;SDS011;40884;53.562;9.940;2023-01-13T04:30:26;16.00;;;3.80;;
54983;SDS011;40884;53.562;9.940;2023-01-13T04:31:26;17.90;;;4.00;;
54983;SDS011;40884;53.562;9.940;2023-01-13T04:32:26;16.27;;;3.40;;
54983;SDS011;40884;53.562;9.940;2023-01-13T04:33:26;12.83;;;2.90;;
54983;SDS011;40884;53.562;9.940;2023-01-13T04:34:26;15.83;;;3.20;;
54983;SDS011;40884;53.562;9.940;2023-01-13T04:35:27;16.30;;;3.90;;
54983;SDS011;40884;53.562;9.940;2023-01-13T04:36:27;16.43;;;3.87;;
54983;SDS011;40884;53.562;9.940;2023-01-13T04:37:27;13.97;;;3.17;;
54983;SDS011;40884;53.562;9.940;2023-01-13T04:38:27;12.97;;;3.37;;
54983;SDS011;40884;53.562;9.940;2023-01-13T04:39:27;9.33;;;2.67;;
54983;SDS011;40884;53.562;9.940;2023-01-13T04:40:27;7.60;;;2.17;;
54983;SDS011;40884;53.562;9.940;2023-01-13T04:41:27;12.20;;;2.83;;
54983;SDS011;40884;53.562;9.940;2023-01-13T04:42:27;14.47;;;3.13;;
54983;SDS011;40884;53.562;9.940;2023-01-13T04:43:28;13.30;;;3.33;;
54983;SDS011;40884;53.562;9.940;2023-01-13T04:44:28;16.10;;;3.47;;
54983;SDS011;40884;53.562;9.940;2023-01-13T04:45:28;12.67;;;3.10;;
54983;SDS011;40884;53.562;9.940;2023-01-13T04:46:28;12.50;;;3.67;;
54983;SDS011;40884;53.562;9.940;2023-01-13T04:47:28;14.50;;;3.63;;
54983;SDS011;40884;53.562;9.940;2023-01-13T04:48:28;12.80;;;3.00;;
54983;SDS011;40884;53.562;9.940;2023-01-13T04:49:28;10.10;;;2.80;;
54983;SDS011;40884;53.562;9.940;2023-01-13T04:50:29;11.77;;;3.27;;
54983;SDS011;40884;53.562;9.940;2023-01-13T04:51:29;17.90;;;3.67;;
54983;SDS011;40884;53.562;9.940;2023-01-13T04:52:29;9.07;;;2.23;;
54983;SDS011;40884;53.562;9.940;2023-01-13T04:53:29;16.50;;;3.23;;
54983;SDS011;40884;53.562;9.940;2023-01-13T04:54:29;14.37;;;3.23;;
54983;SDS011;40884;53.562;9.940;2023-01-13T04:55:29;15.60;;;4.13;;
54983;SDS011;40884;53.562;9.940;2023-01-13T04:56:30;14.77;;;2.83;;
54983;SDS011;40884;53.562;9.940;2023-01-13T04:57:31;10.10;;;2.40;;
54983;SDS011;40884;53.562;9.940;2023-01-13T04:58:31;13.37;;;2.63;;
54983;SDS011;40884;53.562;9.940;2023-01-13T04:59:31;13.23;;;2.33;;
54983;SDS011;40884;53.562;9.940;2023-01-13T05:00:31;11.97;;;3.30;;
54983;SDS011;40884;53.562;9.940;2023-01-13T05:01:31;14.83;;;3.10;;
54983;SDS011;40884;53.562;9.940;2023-01-13T05:02:32;15.33;;;3.43;;
54983;SDS011;40884;53.562;9.940;2023-01-13T05:03:32;13.30;;;3.37;;
54983;SDS011;40884;53.562;9.940;2023-01-13T05:04:32;13.23;;;3.10;;
54983;SDS011;40884;53.562;9.940;2023-01-13T05:05:32;10.80;;;2.40;;
54983;SDS011;40884;53.562;9.940;2023-01-13T05:06:33;10.60;;;2.80;;
54983;SDS011;40884;53.562;9.940;2023-01-13T05:07:33;11.00;;;2.67;;
54983;SDS011;40884;53.562;9.940;2023-01-13T05:08:33;12.17;;;3.03;;
54983;SDS011;40884;53.562;9.940;2023-01-13T05:09:33;15.37;;;3.13;;
54983;SDS011;40884;53.562;9.940;2023-01-13T05:10:33;9.87;;;2.53;;
54983;SDS011;40884;53.562;9.940;2023-01-13T05:11:33;11.53;;;2.70;;
54983;SDS011;40884;53.562;9.940;2023-01-13T05:12:33;10.57;;;2.67;;
54983;SDS011;40884;53.562;9.940;2023-01-13T05:13:33;17.90;;;3.50;;
54983;SDS011;40884;53.562;9.940;2023-01-13T05:14:33;6.70;;;2.10;;
54983;SDS011;40884;53.562;9.940;2023-01-13T05:15:34;23.40;;;4.70;;
54983;SDS011;40884;53.562;9.940;2023-01-13T05:16:34;13.03;;;3.10;;
54983;SDS011;40884;53.562;9.940;2023-01-13T05:17:34;12.93;;;3.40;;
54983;SDS011;40884;53.562;9.940;2023-01-13T05:18:34;10.00;;;2.63;;
54983;SDS011;40884;53.562;9.940;2023-01-13T05:19:35;8.90;;;2.13;;
54983;SDS011;40884;53.562;9.940;2023-01-13T05:20:36;14.80;;;3.53;;
54983;SDS011;40884;53.562;9.940;2023-01-13T05:21:36;10.87;;;2.80;;
54983;SDS011;40884;53.562;9.940;2023-01-13T05:22:36;14.13;;;3.30;;
54983;SDS011;40884;53.562;9.940;2023-01-13T05:23:36;12.40;;;3.57;;
54983;SDS011;40884;53.562;9.940;2023-01-13T05:24:36;15.00;;;3.50;;
54983;SDS011;40884;53.562;9.940;2023-01-13T05:25:38;12.63;;;3.60;;
54983;SDS011;40884;53.562;9.940;2023-01-13T05:26:38;12.63;;;3.23;;
54983;SDS011;40884;53.562;9.940;2023-01-13T05:27:38;14.00;;;3.47;;
54983;SDS011;40884;53.562;9.940;2023-01-13T05:28:38;11.27;;;2.20;;
54983;SDS011;40884;53.562;9.940;2023-01-13T05:29:39;12.63;;;3.63;;
54983;SDS011;40884;53.562;9.940;2023-01-13T05:30:41;14.17;;;3.50;;
54983;SDS011;40884;53.562;9.940;2023-01-13T05:31:41;14.80;;;3.90;;
54983;SDS011;40884;53.562;9.940;2023-01-13T05:32:41;18.37;;;4.10;;
54983;SDS011;40884;53.562;9.940;2023-01-13T05:33:41;19.47;;;3.77;;
54983;SDS011;40884;53.562;9.940;2023-01-13T05:34:41;16.50;;;4.20;;
54983;SDS011;40884;53.562;9.940;2023-01-13T05:35:42;16.83;;;3.80;;
54983;SDS011;40884;53.562;9.940;2023-01-13T05:36:43;14.53;;;3.27;;
54983;SDS011;40884;53.562;9.940;2023-01-13T05:37:43;10.10;;;2.73;;
54983;SDS011;40884;53.562;9.940;2023-01-13T05:38:44;14.70;;;3.97;;
54983;SDS011;40884;53.562;9.940;2023-01-13T05:39:44;13.33;;;4.03;;
54983;SDS011;40884;53.562;9.940;2023-01-13T05:40:44;15.47;;;3.73;;
54983;SDS011;40884;53.562;9.940;2023-01-13T05:41:44;10.37;;;3.03;;
54983;SDS011;40884;53.562;9.940;2023-01-13T05:42:44;8.63;;;2.93;;
54983;SDS011;40884;53.562;9.940;2023-01-13T05:43:44;14.47;;;3.10;;
54983;SDS011;40884;53.562;9.940;2023-01-13T05:44:45;15.97;;;3.93;;
54983;SDS011;40884;53.562;9.940;2023-01-13T05:45:48;14.47;;;2.87;;
54983;SDS011;40884;53.562;9.940;2023-01-13T05:46:49;7.13;;;2.17;;
54983;SDS011;40884;53.562;9.940;2023-01-13T05:47:49;12.37;;;3.30;;
54983;SDS011;40884;53.562;9.940;2023-01-13T05:48:49;16.37;;;3.97;;
54983;SDS011;40884;53.562;9.940;2023-01-13T05:49:49;14.97;;;3.60;;
54983;SDS011;40884;53.562;9.940;2023-01-13T05:50:49;11.10;;;2.73;;
54983;SDS011;40884;53.562;9.940;2023-01-13T05:51:49;16.07;;;3.70;;
54983;SDS011;40884;53.562;9.940;2023-01-13T05:52:50;17.80;;;3.97;;
54983;SDS011;40884;53.562;9.940;2023-01-13T05:53:50;12.13;;;3.63;;
54983;SDS011;40884;53.562;9.940;2023-01-13T05:54:50;12.70;;;3.27;;
54983;SDS011;40884;53.562;9.940;2023-01-13T05:55:50;13.17;;;3.97;;
54983;SDS011;40884;53.562;9.940;2023-01-13T05:56:51;16.03;;;3.80;;
54983;SDS011;40884;53.562;9.940;2023-01-13T05:57:51;16.87;;;4.23;;
54983;SDS011;40884;53.562;9.940;2023-01-13T05:58:51;14.87;;;3.80;;
54983;SDS011;40884;53.562;9.940;2023-01-13T05:59:51;18.03;;;4.83;;
54983;SDS011;40884;53.562;9.940;2023-01-13T06:00:51;12.57;;;3.33;;
54983;SDS011;40884;53.562;9.940;2023-01-13T06:01:51;15.53;;;4.10;;
54983;SDS011;40884;53.562;9.940;2023-01-13T06:02:51;13.77;;;3.67;;
54983;SDS011;40884;53.562;9.940;2023-01-13T06:03:52;17.27;;;3.90;;
54983;SDS011;40884;53.562;9.940;2023-01-13T06:04:52;13.63;;;3.17;;
54983;SDS011;40884;53.562;9.940;2023-01-13T06:05:52;13.57;;;3.50;;
54983;SDS011;40884;53.562;9.940;2023-01-13T06:06:52;13.93;;;3.37;;
54983;SDS011;40884;53.562;9.940;2023-01-13T06:07:55;16.03;;;3.40;;
54983;SDS011;40884;53.562;9.940;2023-01-13T06:08:55;12.00;;;3.00;;
54983;SDS011;40884;53.562;9.940;2023-01-13T06:09:55;15.00;;;3.13;;
54983;SDS011;40884;53.562;9.940;2023-01-13T06:10:55;12.00;;;3.47;;
54983;SDS011;40884;53.562;9.940;2023-01-13T06:11:56;16.87;;;3.30;;
54983;SDS011;40884;53.562;9.940;2023-01-13T06:12:56;11.97;;;3.27;;
54983;SDS011;40884;53.562;9.940;2023-01-13T06:13:56;13.97;;;3.33;;
54983;SDS011;40884;53.562;9.940;2023-01-13T06:14:56;18.97;;;4.13;;
54983;SDS011;40884;53.562;9.940;2023-01-13T06:15:56;17.00;;;3.60;;
54983;SDS011;40884;53.562;9.940;2023-01-13T06:16:57;12.17;;;3.60;;
54983;SDS011;40884;53.562;9.940;2023-01-13T06:17:57;15.93;;;4.07;;
54983;SDS011;40884;53.562;9.940;2023-01-13T06:18:57;16.23;;;3.77;;
54983;SDS011;40884;53.562;9.940;2023-01-13T06:19:57;13.90;;;3.43;;
54983;SDS011;40884;53.562;9.940;2023-01-13T06:20:57;13.40;;;3.70;;
54983;SDS011;40884;53.562;9.940;2023-01-13T06:21:57;17.97;;;4.33;;
54983;SDS011;40884;53.562;9.940;2023-01-13T06:22:58;16.97;;;3.67;;
54983;SDS011;40884;53.562;9.940;2023-01-13T06:23:58;16.60;;;3.60;;
54983;SDS011;40884;53.562;9.940;2023-01-13T06:24:58;16.87;;;3.53;;
54983;SDS011;40884;53.562;9.940;2023-01-13T06:26:07;16.73;;;3.83;;
54983;SDS011;40884;53.562;9.940;2023-01-13T06:27:08;18.37;;;3.70;;
54983;SDS011;40884;53.562;9.940;2023-01-13T06:28:09;14.60;;;3.23;;